<?xml version="1.0" encoding="UTF-8"?>
<gpx version="1.1" creator="Endomondo.com" xsi:schemaLocation="http://www.topografix.com/GPX/1/1 http://www.topografix.com/GPX/1/1/gpx.xsd http://www.garmin.com/xmlschemas/GpxExtensions/v3 http://www.garmin.com/xmlschemas/GpxExtensionsv3.xsd http://www.garmin.com/xmlschemas/TrackPointExtension/v1 http://www.garmin.com/xmlschemas/TrackPointExtensionv1.xsd" xmlns="http://www.topografix.com/GPX/1/1" xmlns:gpxtpx="http://www.garmin.com/xmlschemas/TrackPointExtension/v1" xmlns:gpxx="http://www.garmin.com/xmlschemas/GpxExtensions/v3" xmlns:xsi="http://www.w3.org/2001/XMLSchema-instance">
  <metadata>
    <author>
      <name>Anton Drukh</name>
      <email id="adrukh" domain="gmail.com"/>
    </author>
    <link href="http://www.endomondo.com">
      <text>Endomondo</text>
    </link>
    <time>2012-04-27T06:15:18Z</time>
    <bounds minlat="31.9506429" minlon="34.9552884" maxlat="31.9507003" maxlon="34.955342"/>
  </metadata>
  <trk>
    <name>Ben Shemen KKL 1 - full single</name>
    <src>http://www.endomondo.com/</src>
    <link href="http://www.endomondo.com/workouts/mGy08JCoVwk">
      <text>Ben Shemen KKL 1 - full single</text>
    </link>
    <type>MOUNTAIN_BIKING</type>
    <trkseg>
      <trkpt lat="31.9506429" lon="34.9552884">
        <time>2012-04-27T04:05:44Z</time>
      </trkpt>
      <trkpt lat="31.9506429" lon="34.9552884">
        <ele>169.5</ele>
        <time>2012-04-27T04:05:44Z</time>
      </trkpt>
      <trkpt lat="31.9505376" lon="34.9551841">
        <ele>169.0</ele>
        <time>2012-04-27T04:05:53Z</time>
      </trkpt>
      <trkpt lat="31.9505004" lon="34.9550148">
        <ele>171.6</ele>
        <time>2012-04-27T04:05:57Z</time>
      </trkpt>
      <trkpt lat="31.9505224" lon="34.9546814">
        <ele>164.6</ele>
        <time>2012-04-27T04:06:05Z</time>
      </trkpt>
      <trkpt lat="31.9505546" lon="34.9545081">
        <ele>164.9</ele>
        <time>2012-04-27T04:06:10Z</time>
      </trkpt>
      <trkpt lat="31.950733" lon="34.9542084">
        <ele>166.5</ele>
        <time>2012-04-27T04:06:18Z</time>
      </trkpt>
      <trkpt lat="31.9509606" lon="34.9539547">
        <ele>163.3</ele>
        <time>2012-04-27T04:06:25Z</time>
      </trkpt>
      <trkpt lat="31.9512427" lon="34.9537519">
        <ele>159.9</ele>
        <time>2012-04-27T04:06:33Z</time>
      </trkpt>
      <trkpt lat="31.9514092" lon="34.9534854">
        <ele>159.2</ele>
        <time>2012-04-27T04:06:45Z</time>
      </trkpt>
      <trkpt lat="31.9513054" lon="34.9533371">
        <ele>156.8</ele>
        <time>2012-04-27T04:06:51Z</time>
      </trkpt>
      <trkpt lat="31.9511754" lon="34.9532489">
        <ele>159.5</ele>
        <time>2012-04-27T04:06:57Z</time>
      </trkpt>
      <trkpt lat="31.9511754" lon="34.9532489">
        <time>2012-04-27T04:07:09Z</time>
      </trkpt>
    </trkseg>
    <trkseg>
      <trkpt lat="31.9511754" lon="34.9532489">
        <time>2012-04-27T04:07:53Z</time>
      </trkpt>
      <trkpt lat="31.9510974" lon="34.9531897">
        <ele>156.0</ele>
        <time>2012-04-27T04:07:53Z</time>
      </trkpt>
      <trkpt lat="31.9509751" lon="34.9530413">
        <ele>155.5</ele>
        <time>2012-04-27T04:07:58Z</time>
      </trkpt>
      <trkpt lat="31.9508467" lon="34.9529052">
        <ele>151.7</ele>
        <time>2012-04-27T04:08:02Z</time>
      </trkpt>
      <trkpt lat="31.9505807" lon="34.9527235">
        <ele>150.5</ele>
        <time>2012-04-27T04:08:10Z</time>
      </trkpt>
      <trkpt lat="31.9503136" lon="34.9525297">
        <ele>153.0</ele>
        <time>2012-04-27T04:08:19Z</time>
      </trkpt>
      <trkpt lat="31.9501586" lon="34.9524851">
        <ele>146.9</ele>
        <time>2012-04-27T04:08:24Z</time>
      </trkpt>
      <trkpt lat="31.950023" lon="34.9524629">
        <ele>145.8</ele>
        <time>2012-04-27T04:08:28Z</time>
      </trkpt>
      <trkpt lat="31.9498928" lon="34.9523816">
        <ele>148.6</ele>
        <time>2012-04-27T04:08:34Z</time>
      </trkpt>
      <trkpt lat="31.9498208" lon="34.9522398">
        <ele>149.3</ele>
        <time>2012-04-27T04:08:40Z</time>
      </trkpt>
      <trkpt lat="31.9498208" lon="34.9522398">
        <time>2012-04-27T04:08:56Z</time>
      </trkpt>
    </trkseg>
    <trkseg>
      <trkpt lat="31.9498208" lon="34.9522398">
        <time>2012-04-27T04:08:57Z</time>
      </trkpt>
      <trkpt lat="31.9499184" lon="34.952145">
        <ele>143.9</ele>
        <time>2012-04-27T04:08:57Z</time>
      </trkpt>
      <trkpt lat="31.9500666" lon="34.9521056">
        <ele>144.0</ele>
        <time>2012-04-27T04:09:07Z</time>
      </trkpt>
      <trkpt lat="31.9500666" lon="34.9521056">
        <time>2012-04-27T04:09:14Z</time>
      </trkpt>
    </trkseg>
    <trkseg>
      <trkpt lat="31.9500666" lon="34.9521056">
        <time>2012-04-27T04:09:42Z</time>
      </trkpt>
      <trkpt lat="31.9500728" lon="34.9520959">
        <ele>142.5</ele>
        <time>2012-04-27T04:09:42Z</time>
      </trkpt>
      <trkpt lat="31.9501776" lon="34.9519352">
        <ele>140.8</ele>
        <time>2012-04-27T04:09:49Z</time>
      </trkpt>
      <trkpt lat="31.9502972" lon="34.9518548">
        <ele>145.9</ele>
        <time>2012-04-27T04:09:55Z</time>
      </trkpt>
      <trkpt lat="31.9504639" lon="34.9518514">
        <ele>139.7</ele>
        <time>2012-04-27T04:10:00Z</time>
      </trkpt>
      <trkpt lat="31.950735" lon="34.9517316">
        <ele>140.8</ele>
        <time>2012-04-27T04:10:08Z</time>
      </trkpt>
      <trkpt lat="31.950856" lon="34.9516445">
        <ele>140.4</ele>
        <time>2012-04-27T04:10:13Z</time>
      </trkpt>
      <trkpt lat="31.9508999" lon="34.9514889">
        <ele>140.4</ele>
        <time>2012-04-27T04:10:19Z</time>
      </trkpt>
      <trkpt lat="31.9508999" lon="34.9514889">
        <time>2012-04-27T04:10:28Z</time>
      </trkpt>
    </trkseg>
    <trkseg>
      <trkpt lat="31.9508999" lon="34.9514889">
        <time>2012-04-27T04:10:34Z</time>
      </trkpt>
      <trkpt lat="31.9509131" lon="34.9514522">
        <ele>136.6</ele>
        <time>2012-04-27T04:10:34Z</time>
      </trkpt>
      <trkpt lat="31.9509652" lon="34.9512819">
        <ele>141.0</ele>
        <time>2012-04-27T04:10:41Z</time>
      </trkpt>
      <trkpt lat="31.9510696" lon="34.9511709">
        <ele>141.0</ele>
        <time>2012-04-27T04:10:48Z</time>
      </trkpt>
      <trkpt lat="31.9512061" lon="34.9511212">
        <ele>144.4</ele>
        <time>2012-04-27T04:10:59Z</time>
      </trkpt>
      <trkpt lat="31.9512851" lon="34.9509901">
        <ele>142.8</ele>
        <time>2012-04-27T04:11:04Z</time>
      </trkpt>
      <trkpt lat="31.9513382" lon="34.950821">
        <ele>143.7</ele>
        <time>2012-04-27T04:11:10Z</time>
      </trkpt>
      <trkpt lat="31.9513678" lon="34.950641">
        <ele>153.5</ele>
        <time>2012-04-27T04:11:17Z</time>
      </trkpt>
      <trkpt lat="31.951364" lon="34.950464">
        <ele>148.0</ele>
        <time>2012-04-27T04:11:23Z</time>
      </trkpt>
      <trkpt lat="31.9513664" lon="34.9502717">
        <ele>149.3</ele>
        <time>2012-04-27T04:11:28Z</time>
      </trkpt>
      <trkpt lat="31.9513354" lon="34.950093">
        <ele>154.9</ele>
        <time>2012-04-27T04:11:33Z</time>
      </trkpt>
      <trkpt lat="31.9512252" lon="34.9499407">
        <ele>153.8</ele>
        <time>2012-04-27T04:11:38Z</time>
      </trkpt>
      <trkpt lat="31.9511112" lon="34.9498008">
        <ele>150.7</ele>
        <time>2012-04-27T04:11:43Z</time>
      </trkpt>
      <trkpt lat="31.9508597" lon="34.9496452">
        <ele>149.5</ele>
        <time>2012-04-27T04:11:51Z</time>
      </trkpt>
      <trkpt lat="31.9507347" lon="34.9495473">
        <ele>148.4</ele>
        <time>2012-04-27T04:11:56Z</time>
      </trkpt>
      <trkpt lat="31.9506221" lon="34.9494572">
        <ele>148.4</ele>
        <time>2012-04-27T04:12:03Z</time>
      </trkpt>
      <trkpt lat="31.9505112" lon="34.9493356">
        <ele>149.7</ele>
        <time>2012-04-27T04:12:11Z</time>
      </trkpt>
      <trkpt lat="31.9505112" lon="34.9493356">
        <time>2012-04-27T04:12:22Z</time>
      </trkpt>
    </trkseg>
    <trkseg>
      <trkpt lat="31.9505112" lon="34.9493356">
        <time>2012-04-27T04:12:23Z</time>
      </trkpt>
      <trkpt lat="31.9504711" lon="34.9492895">
        <ele>150.0</ele>
        <time>2012-04-27T04:12:23Z</time>
      </trkpt>
      <trkpt lat="31.9503183" lon="34.949196">
        <ele>151.8</ele>
        <time>2012-04-27T04:12:28Z</time>
      </trkpt>
      <trkpt lat="31.950099" lon="34.9489683">
        <ele>152.2</ele>
        <time>2012-04-27T04:12:34Z</time>
      </trkpt>
      <trkpt lat="31.9499717" lon="34.948653">
        <ele>157.2</ele>
        <time>2012-04-27T04:12:41Z</time>
      </trkpt>
      <trkpt lat="31.9499294" lon="34.9483114">
        <ele>149.8</ele>
        <time>2012-04-27T04:12:49Z</time>
      </trkpt>
      <trkpt lat="31.9499118" lon="34.948132">
        <ele>148.6</ele>
        <time>2012-04-27T04:12:54Z</time>
      </trkpt>
      <trkpt lat="31.9499213" lon="34.9479374">
        <ele>148.6</ele>
        <time>2012-04-27T04:12:59Z</time>
      </trkpt>
      <trkpt lat="31.9499213" lon="34.9479374">
        <time>2012-04-27T04:13:12Z</time>
      </trkpt>
    </trkseg>
    <trkseg>
      <trkpt lat="31.9499213" lon="34.9479374">
        <time>2012-04-27T04:13:22Z</time>
      </trkpt>
      <trkpt lat="31.9499444" lon="34.9477831">
        <ele>144.2</ele>
        <time>2012-04-27T04:13:22Z</time>
      </trkpt>
      <trkpt lat="31.9499216" lon="34.9475747">
        <ele>142.6</ele>
        <time>2012-04-27T04:13:28Z</time>
      </trkpt>
      <trkpt lat="31.9498195" lon="34.9474205">
        <ele>147.1</ele>
        <time>2012-04-27T04:13:32Z</time>
      </trkpt>
      <trkpt lat="31.9497127" lon="34.9471041">
        <ele>149.0</ele>
        <time>2012-04-27T04:13:38Z</time>
      </trkpt>
      <trkpt lat="31.9498894" lon="34.9468399">
        <ele>137.1</ele>
        <time>2012-04-27T04:13:45Z</time>
      </trkpt>
      <trkpt lat="31.9498831" lon="34.9466628">
        <ele>141.7</ele>
        <time>2012-04-27T04:13:50Z</time>
      </trkpt>
      <trkpt lat="31.9497795" lon="34.9462711">
        <ele>141.8</ele>
        <time>2012-04-27T04:13:58Z</time>
      </trkpt>
      <trkpt lat="31.9496712" lon="34.9459767">
        <ele>138.7</ele>
        <time>2012-04-27T04:14:06Z</time>
      </trkpt>
      <trkpt lat="31.9496712" lon="34.9459767">
        <time>2012-04-27T04:14:15Z</time>
      </trkpt>
    </trkseg>
    <trkseg>
      <trkpt lat="31.9496712" lon="34.9459767">
        <time>2012-04-27T04:14:41Z</time>
      </trkpt>
      <trkpt lat="31.9496379" lon="34.9459524">
        <ele>133.3</ele>
        <time>2012-04-27T04:14:41Z</time>
      </trkpt>
      <trkpt lat="31.9495493" lon="34.9457532">
        <ele>141.9</ele>
        <time>2012-04-27T04:14:49Z</time>
      </trkpt>
      <trkpt lat="31.9494005" lon="34.9454757">
        <ele>135.6</ele>
        <time>2012-04-27T04:14:55Z</time>
      </trkpt>
      <trkpt lat="31.9493355" lon="34.9451009">
        <ele>131.3</ele>
        <time>2012-04-27T04:15:01Z</time>
      </trkpt>
      <trkpt lat="31.9495111" lon="34.9447965">
        <ele>120.3</ele>
        <time>2012-04-27T04:15:08Z</time>
      </trkpt>
      <trkpt lat="31.9498063" lon="34.9446385">
        <ele>117.6</ele>
        <time>2012-04-27T04:15:14Z</time>
      </trkpt>
      <trkpt lat="31.9501054" lon="34.9444892">
        <ele>118.6</ele>
        <time>2012-04-27T04:15:19Z</time>
      </trkpt>
      <trkpt lat="31.9503798" lon="34.944371">
        <ele>123.9</ele>
        <time>2012-04-27T04:15:25Z</time>
      </trkpt>
      <trkpt lat="31.950561" lon="34.9441173">
        <ele>119.3</ele>
        <time>2012-04-27T04:15:33Z</time>
      </trkpt>
      <trkpt lat="31.9505914" lon="34.943937">
        <ele>119.0</ele>
        <time>2012-04-27T04:15:37Z</time>
      </trkpt>
      <trkpt lat="31.9505914" lon="34.943937">
        <time>2012-04-27T04:15:55Z</time>
      </trkpt>
    </trkseg>
    <trkseg>
      <trkpt lat="31.9505914" lon="34.943937">
        <time>2012-04-27T04:15:59Z</time>
      </trkpt>
      <trkpt lat="31.9507129" lon="34.9436174">
        <ele>115.3</ele>
        <time>2012-04-27T04:15:59Z</time>
      </trkpt>
      <trkpt lat="31.9507419" lon="34.9434401">
        <ele>122.4</ele>
        <time>2012-04-27T04:16:07Z</time>
      </trkpt>
      <trkpt lat="31.9507711" lon="34.9432744">
        <ele>110.7</ele>
        <time>2012-04-27T04:16:13Z</time>
      </trkpt>
      <trkpt lat="31.9507675" lon="34.9430872">
        <ele>111.8</ele>
        <time>2012-04-27T04:16:19Z</time>
      </trkpt>
      <trkpt lat="31.9507386" lon="34.9429026">
        <ele>117.0</ele>
        <time>2012-04-27T04:16:24Z</time>
      </trkpt>
      <trkpt lat="31.950709" lon="34.9427392">
        <ele>119.0</ele>
        <time>2012-04-27T04:16:29Z</time>
      </trkpt>
      <trkpt lat="31.9507421" lon="34.9425501">
        <ele>125.4</ele>
        <time>2012-04-27T04:16:35Z</time>
      </trkpt>
      <trkpt lat="31.9507159" lon="34.9423764">
        <ele>126.1</ele>
        <time>2012-04-27T04:16:41Z</time>
      </trkpt>
      <trkpt lat="31.9506116" lon="34.9422611">
        <ele>127.2</ele>
        <time>2012-04-27T04:16:47Z</time>
      </trkpt>
      <trkpt lat="31.9506184" lon="34.9420858">
        <ele>126.0</ele>
        <time>2012-04-27T04:16:53Z</time>
      </trkpt>
      <trkpt lat="31.9506496" lon="34.9419257">
        <ele>128.0</ele>
        <time>2012-04-27T04:17:00Z</time>
      </trkpt>
      <trkpt lat="31.9507165" lon="34.9417709">
        <ele>127.6</ele>
        <time>2012-04-27T04:17:10Z</time>
      </trkpt>
      <trkpt lat="31.9507494" lon="34.9416">
        <ele>128.9</ele>
        <time>2012-04-27T04:17:16Z</time>
      </trkpt>
      <trkpt lat="31.9508855" lon="34.9415406">
        <ele>127.8</ele>
        <time>2012-04-27T04:17:22Z</time>
      </trkpt>
      <trkpt lat="31.9509994" lon="34.9414506">
        <ele>124.2</ele>
        <time>2012-04-27T04:17:28Z</time>
      </trkpt>
      <trkpt lat="31.9509789" lon="34.9412745">
        <ele>121.8</ele>
        <time>2012-04-27T04:17:34Z</time>
      </trkpt>
      <trkpt lat="31.9509472" lon="34.9411109">
        <ele>127.0</ele>
        <time>2012-04-27T04:17:38Z</time>
      </trkpt>
      <trkpt lat="31.9507549" lon="34.940795">
        <ele>128.1</ele>
        <time>2012-04-27T04:17:46Z</time>
      </trkpt>
      <trkpt lat="31.9506442" lon="34.940687">
        <ele>125.5</ele>
        <time>2012-04-27T04:17:51Z</time>
      </trkpt>
      <trkpt lat="31.9506442" lon="34.940687">
        <time>2012-04-27T04:18:03Z</time>
      </trkpt>
    </trkseg>
    <trkseg>
      <trkpt lat="31.9506442" lon="34.940687">
        <time>2012-04-27T04:18:04Z</time>
      </trkpt>
      <trkpt lat="31.9505356" lon="34.9406344">
        <ele>118.7</ele>
        <time>2012-04-27T04:18:04Z</time>
      </trkpt>
      <trkpt lat="31.9503922" lon="34.9406171">
        <ele>118.2</ele>
        <time>2012-04-27T04:18:13Z</time>
      </trkpt>
      <trkpt lat="31.9502354" lon="34.9405908">
        <ele>123.2</ele>
        <time>2012-04-27T04:18:18Z</time>
      </trkpt>
      <trkpt lat="31.950103" lon="34.9405402">
        <ele>120.8</ele>
        <time>2012-04-27T04:18:24Z</time>
      </trkpt>
      <trkpt lat="31.9499625" lon="34.9404964">
        <ele>129.3</ele>
        <time>2012-04-27T04:18:31Z</time>
      </trkpt>
      <trkpt lat="31.949818" lon="34.940454">
        <ele>128.4</ele>
        <time>2012-04-27T04:18:37Z</time>
      </trkpt>
      <trkpt lat="31.9496722" lon="34.9405049">
        <ele>122.9</ele>
        <time>2012-04-27T04:18:43Z</time>
      </trkpt>
      <trkpt lat="31.9495222" lon="34.9405058">
        <ele>122.7</ele>
        <time>2012-04-27T04:18:54Z</time>
      </trkpt>
      <trkpt lat="31.9493913" lon="34.9405831">
        <ele>116.4</ele>
        <time>2012-04-27T04:19:01Z</time>
      </trkpt>
      <trkpt lat="31.9492595" lon="34.9406378">
        <ele>115.4</ele>
        <time>2012-04-27T04:19:07Z</time>
      </trkpt>
      <trkpt lat="31.9491141" lon="34.9406736">
        <ele>119.6</ele>
        <time>2012-04-27T04:19:13Z</time>
      </trkpt>
      <trkpt lat="31.9489635" lon="34.9406914">
        <ele>122.7</ele>
        <time>2012-04-27T04:19:19Z</time>
      </trkpt>
      <trkpt lat="31.9488199" lon="34.9405831">
        <ele>125.9</ele>
        <time>2012-04-27T04:19:24Z</time>
      </trkpt>
      <trkpt lat="31.9486851" lon="34.9404745">
        <ele>125.9</ele>
        <time>2012-04-27T04:19:28Z</time>
      </trkpt>
      <trkpt lat="31.948626" lon="34.9403188">
        <ele>126.4</ele>
        <time>2012-04-27T04:19:33Z</time>
      </trkpt>
      <trkpt lat="31.9486513" lon="34.9401595">
        <ele>118.5</ele>
        <time>2012-04-27T04:19:40Z</time>
      </trkpt>
      <trkpt lat="31.9486936" lon="34.9400088">
        <ele>119.0</ele>
        <time>2012-04-27T04:19:46Z</time>
      </trkpt>
      <trkpt lat="31.948724" lon="34.9398264">
        <ele>117.4</ele>
        <time>2012-04-27T04:19:51Z</time>
      </trkpt>
      <trkpt lat="31.948724" lon="34.9398264">
        <time>2012-04-27T04:20:04Z</time>
      </trkpt>
    </trkseg>
    <trkseg>
      <trkpt lat="31.948724" lon="34.9398264">
        <time>2012-04-27T04:22:59Z</time>
      </trkpt>
      <trkpt lat="31.9487234" lon="34.9397178">
        <ele>126.0</ele>
        <time>2012-04-27T04:22:59Z</time>
      </trkpt>
      <trkpt lat="31.9487854" lon="34.9395616">
        <ele>125.4</ele>
        <time>2012-04-27T04:23:05Z</time>
      </trkpt>
      <trkpt lat="31.9488413" lon="34.9394171">
        <ele>123.3</ele>
        <time>2012-04-27T04:23:11Z</time>
      </trkpt>
      <trkpt lat="31.9488794" lon="34.9392368">
        <ele>124.6</ele>
        <time>2012-04-27T04:23:17Z</time>
      </trkpt>
      <trkpt lat="31.9489357" lon="34.9390771">
        <ele>121.1</ele>
        <time>2012-04-27T04:23:22Z</time>
      </trkpt>
      <trkpt lat="31.9489774" lon="34.9389239">
        <ele>117.8</ele>
        <time>2012-04-27T04:23:26Z</time>
      </trkpt>
      <trkpt lat="31.9490195" lon="34.9385555">
        <ele>117.2</ele>
        <time>2012-04-27T04:23:35Z</time>
      </trkpt>
      <trkpt lat="31.9489827" lon="34.9383771">
        <ele>120.3</ele>
        <time>2012-04-27T04:23:40Z</time>
      </trkpt>
      <trkpt lat="31.9488728" lon="34.9382511">
        <ele>119.7</ele>
        <time>2012-04-27T04:23:46Z</time>
      </trkpt>
      <trkpt lat="31.9487364" lon="34.93823">
        <ele>119.5</ele>
        <time>2012-04-27T04:23:52Z</time>
      </trkpt>
      <trkpt lat="31.948606" lon="34.9381474">
        <ele>123.2</ele>
        <time>2012-04-27T04:23:58Z</time>
      </trkpt>
      <trkpt lat="31.9484681" lon="34.9380584">
        <ele>130.7</ele>
        <time>2012-04-27T04:24:03Z</time>
      </trkpt>
      <trkpt lat="31.9483415" lon="34.9379711">
        <ele>123.8</ele>
        <time>2012-04-27T04:24:08Z</time>
      </trkpt>
      <trkpt lat="31.9480593" lon="34.9378311">
        <ele>127.5</ele>
        <time>2012-04-27T04:24:16Z</time>
      </trkpt>
      <trkpt lat="31.9477639" lon="34.9377187">
        <ele>125.3</ele>
        <time>2012-04-27T04:24:25Z</time>
      </trkpt>
      <trkpt lat="31.9476118" lon="34.93768">
        <ele>123.6</ele>
        <time>2012-04-27T04:24:31Z</time>
      </trkpt>
      <trkpt lat="31.9474556" lon="34.9376562">
        <ele>126.2</ele>
        <time>2012-04-27T04:24:36Z</time>
      </trkpt>
      <trkpt lat="31.9471866" lon="34.9377006">
        <ele>116.3</ele>
        <time>2012-04-27T04:24:46Z</time>
      </trkpt>
      <trkpt lat="31.9470498" lon="34.9378083">
        <ele>118.2</ele>
        <time>2012-04-27T04:24:53Z</time>
      </trkpt>
      <trkpt lat="31.946946" lon="34.9379594">
        <ele>118.6</ele>
        <time>2012-04-27T04:24:58Z</time>
      </trkpt>
      <trkpt lat="31.9468776" lon="34.9381084">
        <ele>114.3</ele>
        <time>2012-04-27T04:25:04Z</time>
      </trkpt>
      <trkpt lat="31.9468371" lon="34.9382664">
        <ele>113.0</ele>
        <time>2012-04-27T04:25:10Z</time>
      </trkpt>
      <trkpt lat="31.9468056" lon="34.9384376">
        <ele>114.1</ele>
        <time>2012-04-27T04:25:15Z</time>
      </trkpt>
      <trkpt lat="31.94655" lon="34.9386491">
        <ele>112.7</ele>
        <time>2012-04-27T04:25:22Z</time>
      </trkpt>
      <trkpt lat="31.9463899" lon="34.9386656">
        <ele>115.1</ele>
        <time>2012-04-27T04:25:26Z</time>
      </trkpt>
      <trkpt lat="31.9462353" lon="34.9385959">
        <ele>123.2</ele>
        <time>2012-04-27T04:25:31Z</time>
      </trkpt>
      <trkpt lat="31.9460885" lon="34.9384806">
        <ele>126.8</ele>
        <time>2012-04-27T04:25:35Z</time>
      </trkpt>
      <trkpt lat="31.9457991" lon="34.938357">
        <ele>122.4</ele>
        <time>2012-04-27T04:25:43Z</time>
      </trkpt>
      <trkpt lat="31.9455441" lon="34.9381182">
        <ele>132.2</ele>
        <time>2012-04-27T04:25:51Z</time>
      </trkpt>
      <trkpt lat="31.945428" lon="34.9380235">
        <ele>129.0</ele>
        <time>2012-04-27T04:26:00Z</time>
      </trkpt>
      <trkpt lat="31.945291" lon="34.9379489">
        <ele>132.1</ele>
        <time>2012-04-27T04:26:05Z</time>
      </trkpt>
      <trkpt lat="31.9449699" lon="34.9378979">
        <ele>124.3</ele>
        <time>2012-04-27T04:26:14Z</time>
      </trkpt>
      <trkpt lat="31.9448312" lon="34.9379037">
        <ele>119.5</ele>
        <time>2012-04-27T04:26:19Z</time>
      </trkpt>
      <trkpt lat="31.9446858" lon="34.9379573">
        <ele>113.1</ele>
        <time>2012-04-27T04:26:26Z</time>
      </trkpt>
      <trkpt lat="31.9445857" lon="34.9380764">
        <ele>112.0</ele>
        <time>2012-04-27T04:26:32Z</time>
      </trkpt>
      <trkpt lat="31.9445108" lon="34.9382164">
        <ele>102.3</ele>
        <time>2012-04-27T04:26:41Z</time>
      </trkpt>
      <trkpt lat="31.9444264" lon="34.9383745">
        <ele>108.3</ele>
        <time>2012-04-27T04:26:47Z</time>
      </trkpt>
      <trkpt lat="31.9443273" lon="34.9384998">
        <ele>113.4</ele>
        <time>2012-04-27T04:26:54Z</time>
      </trkpt>
      <trkpt lat="31.9441784" lon="34.9385849">
        <ele>118.9</ele>
        <time>2012-04-27T04:27:00Z</time>
      </trkpt>
      <trkpt lat="31.9440425" lon="34.9386538">
        <ele>120.5</ele>
        <time>2012-04-27T04:27:04Z</time>
      </trkpt>
      <trkpt lat="31.9438999" lon="34.9386112">
        <ele>120.9</ele>
        <time>2012-04-27T04:27:09Z</time>
      </trkpt>
      <trkpt lat="31.9437491" lon="34.9385139">
        <ele>116.2</ele>
        <time>2012-04-27T04:27:14Z</time>
      </trkpt>
      <trkpt lat="31.9436273" lon="34.9384211">
        <ele>117.5</ele>
        <time>2012-04-27T04:27:18Z</time>
      </trkpt>
      <trkpt lat="31.9434956" lon="34.9383117">
        <ele>114.8</ele>
        <time>2012-04-27T04:27:23Z</time>
      </trkpt>
      <trkpt lat="31.9433705" lon="34.9382087">
        <ele>115.2</ele>
        <time>2012-04-27T04:27:28Z</time>
      </trkpt>
      <trkpt lat="31.9432828" lon="34.9380472">
        <ele>119.3</ele>
        <time>2012-04-27T04:27:34Z</time>
      </trkpt>
      <trkpt lat="31.9432247" lon="34.9379002">
        <ele>116.4</ele>
        <time>2012-04-27T04:27:38Z</time>
      </trkpt>
      <trkpt lat="31.9431097" lon="34.9377713">
        <ele>117.4</ele>
        <time>2012-04-27T04:27:43Z</time>
      </trkpt>
      <trkpt lat="31.9431097" lon="34.9377713">
        <time>2012-04-27T04:27:53Z</time>
      </trkpt>
    </trkseg>
    <trkseg>
      <trkpt lat="31.9431097" lon="34.9377713">
        <time>2012-04-27T04:27:56Z</time>
      </trkpt>
      <trkpt lat="31.9430799" lon="34.9377113">
        <ele>118.9</ele>
        <time>2012-04-27T04:27:56Z</time>
      </trkpt>
      <trkpt lat="31.9429542" lon="34.9375895">
        <ele>116.4</ele>
        <time>2012-04-27T04:28:02Z</time>
      </trkpt>
      <trkpt lat="31.9427895" lon="34.9375884">
        <ele>118.6</ele>
        <time>2012-04-27T04:28:07Z</time>
      </trkpt>
      <trkpt lat="31.942739" lon="34.9377416">
        <ele>113.1</ele>
        <time>2012-04-27T04:28:14Z</time>
      </trkpt>
      <trkpt lat="31.9426828" lon="34.9379045">
        <ele>117.6</ele>
        <time>2012-04-27T04:28:23Z</time>
      </trkpt>
      <trkpt lat="31.9425472" lon="34.9379866">
        <ele>118.1</ele>
        <time>2012-04-27T04:28:29Z</time>
      </trkpt>
      <trkpt lat="31.9424133" lon="34.9380725">
        <ele>117.3</ele>
        <time>2012-04-27T04:28:36Z</time>
      </trkpt>
      <trkpt lat="31.9422672" lon="34.9381223">
        <ele>118.1</ele>
        <time>2012-04-27T04:28:44Z</time>
      </trkpt>
      <trkpt lat="31.9421201" lon="34.938144">
        <ele>112.1</ele>
        <time>2012-04-27T04:28:57Z</time>
      </trkpt>
      <trkpt lat="31.9419667" lon="34.9380757">
        <ele>118.8</ele>
        <time>2012-04-27T04:29:03Z</time>
      </trkpt>
      <trkpt lat="31.9418203" lon="34.938129">
        <ele>115.5</ele>
        <time>2012-04-27T04:29:08Z</time>
      </trkpt>
      <trkpt lat="31.9416745" lon="34.9381819">
        <ele>116.3</ele>
        <time>2012-04-27T04:29:13Z</time>
      </trkpt>
      <trkpt lat="31.9415546" lon="34.9382696">
        <ele>114.5</ele>
        <time>2012-04-27T04:29:19Z</time>
      </trkpt>
      <trkpt lat="31.9414704" lon="34.9384201">
        <ele>114.0</ele>
        <time>2012-04-27T04:29:25Z</time>
      </trkpt>
      <trkpt lat="31.9414231" lon="34.9385825">
        <ele>119.6</ele>
        <time>2012-04-27T04:29:33Z</time>
      </trkpt>
      <trkpt lat="31.9414107" lon="34.9387497">
        <ele>108.0</ele>
        <time>2012-04-27T04:29:39Z</time>
      </trkpt>
      <trkpt lat="31.9413742" lon="34.938919">
        <ele>114.9</ele>
        <time>2012-04-27T04:29:43Z</time>
      </trkpt>
      <trkpt lat="31.9412941" lon="34.9392783">
        <ele>117.4</ele>
        <time>2012-04-27T04:29:50Z</time>
      </trkpt>
      <trkpt lat="31.9412357" lon="34.9394348">
        <ele>110.4</ele>
        <time>2012-04-27T04:29:55Z</time>
      </trkpt>
      <trkpt lat="31.9412571" lon="34.9395917">
        <ele>113.7</ele>
        <time>2012-04-27T04:30:07Z</time>
      </trkpt>
      <trkpt lat="31.9413483" lon="34.9397484">
        <ele>112.9</ele>
        <time>2012-04-27T04:30:13Z</time>
      </trkpt>
      <trkpt lat="31.9415775" lon="34.9399193">
        <ele>109.9</ele>
        <time>2012-04-27T04:30:21Z</time>
      </trkpt>
      <trkpt lat="31.9415775" lon="34.9399193">
        <time>2012-04-27T04:30:34Z</time>
      </trkpt>
    </trkseg>
    <trkseg>
      <trkpt lat="31.9415775" lon="34.9399193">
        <time>2012-04-27T04:30:39Z</time>
      </trkpt>
      <trkpt lat="31.9416449" lon="34.9400465">
        <ele>101.8</ele>
        <time>2012-04-27T04:30:39Z</time>
      </trkpt>
      <trkpt lat="31.9417844" lon="34.9401747">
        <ele>104.3</ele>
        <time>2012-04-27T04:30:46Z</time>
      </trkpt>
      <trkpt lat="31.9417844" lon="34.9401747">
        <time>2012-04-27T04:30:59Z</time>
      </trkpt>
    </trkseg>
    <trkseg>
      <trkpt lat="31.9417844" lon="34.9401747">
        <time>2012-04-27T04:31:04Z</time>
      </trkpt>
      <trkpt lat="31.941905" lon="34.9402199">
        <ele>105.4</ele>
        <time>2012-04-27T04:31:04Z</time>
      </trkpt>
      <trkpt lat="31.9420923" lon="34.9402912">
        <ele>104.1</ele>
        <time>2012-04-27T04:31:10Z</time>
      </trkpt>
      <trkpt lat="31.9423555" lon="34.9404735">
        <ele>104.6</ele>
        <time>2012-04-27T04:31:18Z</time>
      </trkpt>
      <trkpt lat="31.9426289" lon="34.9405922">
        <ele>109.0</ele>
        <time>2012-04-27T04:31:26Z</time>
      </trkpt>
      <trkpt lat="31.9429075" lon="34.9407514">
        <ele>108.8</ele>
        <time>2012-04-27T04:31:34Z</time>
      </trkpt>
      <trkpt lat="31.9430574" lon="34.9407831">
        <ele>108.0</ele>
        <time>2012-04-27T04:31:39Z</time>
      </trkpt>
      <trkpt lat="31.9430574" lon="34.9407831">
        <time>2012-04-27T04:31:54Z</time>
      </trkpt>
    </trkseg>
    <trkseg>
      <trkpt lat="31.9430574" lon="34.9407831">
        <time>2012-04-27T04:31:59Z</time>
      </trkpt>
      <trkpt lat="31.9433389" lon="34.9408797">
        <ele>93.4</ele>
        <time>2012-04-27T04:31:59Z</time>
      </trkpt>
      <trkpt lat="31.9433947" lon="34.9411127">
        <ele>90.8</ele>
        <time>2012-04-27T04:32:03Z</time>
      </trkpt>
      <trkpt lat="31.9434969" lon="34.941491">
        <ele>92.8</ele>
        <time>2012-04-27T04:32:09Z</time>
      </trkpt>
      <trkpt lat="31.9435625" lon="34.9416787">
        <ele>91.6</ele>
        <time>2012-04-27T04:32:13Z</time>
      </trkpt>
      <trkpt lat="31.9436396" lon="34.9418356">
        <ele>92.3</ele>
        <time>2012-04-27T04:32:18Z</time>
      </trkpt>
      <trkpt lat="31.9437317" lon="34.9419582">
        <ele>95.3</ele>
        <time>2012-04-27T04:32:23Z</time>
      </trkpt>
      <trkpt lat="31.9438784" lon="34.9420295">
        <ele>94.7</ele>
        <time>2012-04-27T04:32:29Z</time>
      </trkpt>
      <trkpt lat="31.9439511" lon="34.9421762">
        <ele>100.6</ele>
        <time>2012-04-27T04:32:35Z</time>
      </trkpt>
      <trkpt lat="31.9440974" lon="34.9422268">
        <ele>98.2</ele>
        <time>2012-04-27T04:32:42Z</time>
      </trkpt>
      <trkpt lat="31.9442456" lon="34.9422732">
        <ele>101.7</ele>
        <time>2012-04-27T04:32:49Z</time>
      </trkpt>
      <trkpt lat="31.9442456" lon="34.9422732">
        <time>2012-04-27T04:33:03Z</time>
      </trkpt>
    </trkseg>
    <trkseg>
      <trkpt lat="31.9442456" lon="34.9422732">
        <time>2012-04-27T04:33:04Z</time>
      </trkpt>
      <trkpt lat="31.9442411" lon="34.9423735">
        <ele>98.4</ele>
        <time>2012-04-27T04:33:04Z</time>
      </trkpt>
      <trkpt lat="31.9441743" lon="34.9425424">
        <ele>100.3</ele>
        <time>2012-04-27T04:33:12Z</time>
      </trkpt>
      <trkpt lat="31.9441452" lon="34.9427271">
        <ele>103.1</ele>
        <time>2012-04-27T04:33:18Z</time>
      </trkpt>
      <trkpt lat="31.9440499" lon="34.9428597">
        <ele>101.2</ele>
        <time>2012-04-27T04:33:24Z</time>
      </trkpt>
      <trkpt lat="31.9439843" lon="34.9430034">
        <ele>102.4</ele>
        <time>2012-04-27T04:33:30Z</time>
      </trkpt>
      <trkpt lat="31.9438456" lon="34.9430727">
        <ele>101.8</ele>
        <time>2012-04-27T04:33:35Z</time>
      </trkpt>
      <trkpt lat="31.9435872" lon="34.9429048">
        <ele>109.4</ele>
        <time>2012-04-27T04:33:43Z</time>
      </trkpt>
      <trkpt lat="31.9434607" lon="34.9428328">
        <ele>108.1</ele>
        <time>2012-04-27T04:33:49Z</time>
      </trkpt>
      <trkpt lat="31.9434578" lon="34.9426548">
        <ele>104.4</ele>
        <time>2012-04-27T04:33:54Z</time>
      </trkpt>
      <trkpt lat="31.9433408" lon="34.9425382">
        <ele>104.7</ele>
        <time>2012-04-27T04:34:03Z</time>
      </trkpt>
      <trkpt lat="31.9432017" lon="34.9425114">
        <ele>111.4</ele>
        <time>2012-04-27T04:34:09Z</time>
      </trkpt>
      <trkpt lat="31.943066" lon="34.9425019">
        <ele>112.9</ele>
        <time>2012-04-27T04:34:19Z</time>
      </trkpt>
      <trkpt lat="31.943066" lon="34.9425019">
        <time>2012-04-27T04:34:28Z</time>
      </trkpt>
    </trkseg>
    <trkseg>
      <trkpt lat="31.943066" lon="34.9425019">
        <time>2012-04-27T04:40:40Z</time>
      </trkpt>
      <trkpt lat="31.943041" lon="34.9424953">
        <ele>115.7</ele>
        <time>2012-04-27T04:40:40Z</time>
      </trkpt>
      <trkpt lat="31.943041" lon="34.9424953">
        <time>2012-04-27T04:40:52Z</time>
      </trkpt>
    </trkseg>
    <trkseg>
      <trkpt lat="31.943041" lon="34.9424953">
        <time>2012-04-27T04:40:54Z</time>
      </trkpt>
      <trkpt lat="31.9430012" lon="34.9424695">
        <ele>111.5</ele>
        <time>2012-04-27T04:40:54Z</time>
      </trkpt>
      <trkpt lat="31.9428412" lon="34.9424635">
        <ele>112.7</ele>
        <time>2012-04-27T04:41:04Z</time>
      </trkpt>
      <trkpt lat="31.9427384" lon="34.9425747">
        <ele>104.0</ele>
        <time>2012-04-27T04:41:14Z</time>
      </trkpt>
      <trkpt lat="31.9425942" lon="34.9426095">
        <ele>110.5</ele>
        <time>2012-04-27T04:41:21Z</time>
      </trkpt>
      <trkpt lat="31.9424425" lon="34.9426072">
        <ele>116.0</ele>
        <time>2012-04-27T04:41:29Z</time>
      </trkpt>
      <trkpt lat="31.9423176" lon="34.9426857">
        <ele>114.0</ele>
        <time>2012-04-27T04:41:39Z</time>
      </trkpt>
      <trkpt lat="31.9421785" lon="34.9427342">
        <ele>114.6</ele>
        <time>2012-04-27T04:41:48Z</time>
      </trkpt>
      <trkpt lat="31.9420382" lon="34.9426851">
        <ele>117.6</ele>
        <time>2012-04-27T04:41:54Z</time>
      </trkpt>
      <trkpt lat="31.9418948" lon="34.9426477">
        <ele>118.8</ele>
        <time>2012-04-27T04:41:59Z</time>
      </trkpt>
      <trkpt lat="31.9417395" lon="34.9426593">
        <ele>119.5</ele>
        <time>2012-04-27T04:42:06Z</time>
      </trkpt>
      <trkpt lat="31.9415895" lon="34.9426339">
        <ele>113.2</ele>
        <time>2012-04-27T04:42:11Z</time>
      </trkpt>
      <trkpt lat="31.94148" lon="34.9427439">
        <ele>117.6</ele>
        <time>2012-04-27T04:42:19Z</time>
      </trkpt>
      <trkpt lat="31.9413509" lon="34.9426748">
        <ele>117.4</ele>
        <time>2012-04-27T04:42:30Z</time>
      </trkpt>
      <trkpt lat="31.9413509" lon="34.9426748">
        <time>2012-04-27T04:42:42Z</time>
      </trkpt>
    </trkseg>
    <trkseg>
      <trkpt lat="31.9413509" lon="34.9426748">
        <time>2012-04-27T04:42:44Z</time>
      </trkpt>
      <trkpt lat="31.9412743" lon="34.9426441">
        <ele>120.6</ele>
        <time>2012-04-27T04:42:44Z</time>
      </trkpt>
      <trkpt lat="31.9411306" lon="34.9425778">
        <ele>121.8</ele>
        <time>2012-04-27T04:42:50Z</time>
      </trkpt>
      <trkpt lat="31.9409711" lon="34.9425631">
        <ele>119.2</ele>
        <time>2012-04-27T04:42:56Z</time>
      </trkpt>
      <trkpt lat="31.9408973" lon="34.9427015">
        <ele>104.8</ele>
        <time>2012-04-27T04:43:05Z</time>
      </trkpt>
      <trkpt lat="31.9407814" lon="34.9427942">
        <ele>105.0</ele>
        <time>2012-04-27T04:43:11Z</time>
      </trkpt>
      <trkpt lat="31.9406257" lon="34.9430582">
        <ele>103.6</ele>
        <time>2012-04-27T04:43:22Z</time>
      </trkpt>
      <trkpt lat="31.9406281" lon="34.9432427">
        <ele>113.1</ele>
        <time>2012-04-27T04:43:28Z</time>
      </trkpt>
      <trkpt lat="31.9406607" lon="34.9434025">
        <ele>112.0</ele>
        <time>2012-04-27T04:43:35Z</time>
      </trkpt>
      <trkpt lat="31.9407173" lon="34.9435519">
        <ele>113.8</ele>
        <time>2012-04-27T04:43:41Z</time>
      </trkpt>
      <trkpt lat="31.9406923" lon="34.9437171">
        <ele>114.4</ele>
        <time>2012-04-27T04:43:47Z</time>
      </trkpt>
      <trkpt lat="31.9406905" lon="34.9439014">
        <ele>114.9</ele>
        <time>2012-04-27T04:43:54Z</time>
      </trkpt>
      <trkpt lat="31.9407871" lon="34.9440177">
        <ele>122.4</ele>
        <time>2012-04-27T04:44:06Z</time>
      </trkpt>
      <trkpt lat="31.9409223" lon="34.9440042">
        <ele>119.0</ele>
        <time>2012-04-27T04:44:13Z</time>
      </trkpt>
      <trkpt lat="31.9410581" lon="34.9439337">
        <ele>123.4</ele>
        <time>2012-04-27T04:44:21Z</time>
      </trkpt>
      <trkpt lat="31.9411518" lon="34.9438105">
        <ele>128.2</ele>
        <time>2012-04-27T04:44:27Z</time>
      </trkpt>
      <trkpt lat="31.9412673" lon="34.9436912">
        <ele>126.1</ele>
        <time>2012-04-27T04:44:33Z</time>
      </trkpt>
      <trkpt lat="31.9413891" lon="34.943618">
        <ele>131.6</ele>
        <time>2012-04-27T04:44:39Z</time>
      </trkpt>
      <trkpt lat="31.9415254" lon="34.9435901">
        <ele>127.6</ele>
        <time>2012-04-27T04:44:49Z</time>
      </trkpt>
      <trkpt lat="31.9416235" lon="34.9434614">
        <ele>131.4</ele>
        <time>2012-04-27T04:44:58Z</time>
      </trkpt>
      <trkpt lat="31.9417266" lon="34.9433478">
        <ele>130.5</ele>
        <time>2012-04-27T04:45:04Z</time>
      </trkpt>
      <trkpt lat="31.9418583" lon="34.9432944">
        <ele>128.4</ele>
        <time>2012-04-27T04:45:10Z</time>
      </trkpt>
      <trkpt lat="31.9419961" lon="34.9433576">
        <ele>128.7</ele>
        <time>2012-04-27T04:45:19Z</time>
      </trkpt>
      <trkpt lat="31.942124" lon="34.9434243">
        <ele>129.4</ele>
        <time>2012-04-27T04:45:24Z</time>
      </trkpt>
      <trkpt lat="31.9422581" lon="34.9435186">
        <ele>124.6</ele>
        <time>2012-04-27T04:45:28Z</time>
      </trkpt>
      <trkpt lat="31.9422504" lon="34.9437027">
        <ele>130.4</ele>
        <time>2012-04-27T04:45:34Z</time>
      </trkpt>
      <trkpt lat="31.9422982" lon="34.9438744">
        <ele>119.8</ele>
        <time>2012-04-27T04:45:42Z</time>
      </trkpt>
      <trkpt lat="31.9423242" lon="34.9440437">
        <ele>120.2</ele>
        <time>2012-04-27T04:45:49Z</time>
      </trkpt>
      <trkpt lat="31.9423205" lon="34.944233">
        <ele>117.1</ele>
        <time>2012-04-27T04:45:54Z</time>
      </trkpt>
      <trkpt lat="31.942296" lon="34.9444132">
        <ele>114.6</ele>
        <time>2012-04-27T04:45:59Z</time>
      </trkpt>
      <trkpt lat="31.9422356" lon="34.9445557">
        <ele>116.8</ele>
        <time>2012-04-27T04:46:03Z</time>
      </trkpt>
      <trkpt lat="31.9421756" lon="34.9447168">
        <ele>123.4</ele>
        <time>2012-04-27T04:46:09Z</time>
      </trkpt>
      <trkpt lat="31.9421695" lon="34.9449005">
        <ele>120.7</ele>
        <time>2012-04-27T04:46:14Z</time>
      </trkpt>
      <trkpt lat="31.9421609" lon="34.9450648">
        <ele>119.3</ele>
        <time>2012-04-27T04:46:19Z</time>
      </trkpt>
      <trkpt lat="31.9421609" lon="34.9450648">
        <time>2012-04-27T04:46:35Z</time>
      </trkpt>
    </trkseg>
    <trkseg>
      <trkpt lat="31.9421609" lon="34.9450648">
        <time>2012-04-27T04:46:42Z</time>
      </trkpt>
      <trkpt lat="31.9421139" lon="34.9451942">
        <ele>121.5</ele>
        <time>2012-04-27T04:46:42Z</time>
      </trkpt>
      <trkpt lat="31.9420185" lon="34.9453308">
        <ele>120.7</ele>
        <time>2012-04-27T04:46:50Z</time>
      </trkpt>
      <trkpt lat="31.9419613" lon="34.9455046">
        <ele>124.5</ele>
        <time>2012-04-27T04:46:59Z</time>
      </trkpt>
      <trkpt lat="31.9418798" lon="34.9456529">
        <ele>121.7</ele>
        <time>2012-04-27T04:47:04Z</time>
      </trkpt>
      <trkpt lat="31.9417621" lon="34.945749">
        <ele>136.0</ele>
        <time>2012-04-27T04:47:11Z</time>
      </trkpt>
      <trkpt lat="31.9416412" lon="34.9458405">
        <ele>126.5</ele>
        <time>2012-04-27T04:47:17Z</time>
      </trkpt>
      <trkpt lat="31.9415783" lon="34.9460143">
        <ele>116.8</ele>
        <time>2012-04-27T04:47:27Z</time>
      </trkpt>
      <trkpt lat="31.9415039" lon="34.9461723">
        <ele>125.0</ele>
        <time>2012-04-27T04:47:34Z</time>
      </trkpt>
      <trkpt lat="31.941451" lon="34.9463198">
        <ele>120.5</ele>
        <time>2012-04-27T04:47:40Z</time>
      </trkpt>
      <trkpt lat="31.941325" lon="34.9466243">
        <ele>117.3</ele>
        <time>2012-04-27T04:47:48Z</time>
      </trkpt>
      <trkpt lat="31.9412815" lon="34.9468151">
        <ele>117.2</ele>
        <time>2012-04-27T04:47:52Z</time>
      </trkpt>
      <trkpt lat="31.9412508" lon="34.9469746">
        <ele>119.3</ele>
        <time>2012-04-27T04:47:56Z</time>
      </trkpt>
      <trkpt lat="31.9412415" lon="34.9473356">
        <ele>119.5</ele>
        <time>2012-04-27T04:48:07Z</time>
      </trkpt>
      <trkpt lat="31.9412786" lon="34.9474976">
        <ele>111.2</ele>
        <time>2012-04-27T04:48:15Z</time>
      </trkpt>
      <trkpt lat="31.9413946" lon="34.9476203">
        <ele>109.1</ele>
        <time>2012-04-27T04:48:20Z</time>
      </trkpt>
      <trkpt lat="31.9413946" lon="34.9476203">
        <time>2012-04-27T04:48:35Z</time>
      </trkpt>
    </trkseg>
    <trkseg>
      <trkpt lat="31.9413946" lon="34.9476203">
        <time>2012-04-27T04:48:40Z</time>
      </trkpt>
      <trkpt lat="31.9415414" lon="34.9477026">
        <ele>116.4</ele>
        <time>2012-04-27T04:48:40Z</time>
      </trkpt>
      <trkpt lat="31.9416074" lon="34.9478923">
        <ele>113.3</ele>
        <time>2012-04-27T04:48:46Z</time>
      </trkpt>
      <trkpt lat="31.9418136" lon="34.9481133">
        <ele>112.8</ele>
        <time>2012-04-27T04:48:57Z</time>
      </trkpt>
      <trkpt lat="31.9419434" lon="34.9480555">
        <ele>118.6</ele>
        <time>2012-04-27T04:49:06Z</time>
      </trkpt>
      <trkpt lat="31.9420832" lon="34.9480581">
        <ele>116.4</ele>
        <time>2012-04-27T04:49:12Z</time>
      </trkpt>
      <trkpt lat="31.9423793" lon="34.9480944">
        <ele>113.1</ele>
        <time>2012-04-27T04:49:21Z</time>
      </trkpt>
      <trkpt lat="31.9423679" lon="34.9483023">
        <ele>115.7</ele>
        <time>2012-04-27T04:49:26Z</time>
      </trkpt>
      <trkpt lat="31.9423835" lon="34.9484789">
        <ele>112.7</ele>
        <time>2012-04-27T04:49:31Z</time>
      </trkpt>
      <trkpt lat="31.9423558" lon="34.9486387">
        <ele>114.0</ele>
        <time>2012-04-27T04:49:37Z</time>
      </trkpt>
      <trkpt lat="31.9423021" lon="34.9488092">
        <ele>112.5</ele>
        <time>2012-04-27T04:49:46Z</time>
      </trkpt>
      <trkpt lat="31.9423099" lon="34.9489725">
        <ele>110.6</ele>
        <time>2012-04-27T04:49:56Z</time>
      </trkpt>
      <trkpt lat="31.9423766" lon="34.9491471">
        <ele>108.9</ele>
        <time>2012-04-27T04:50:01Z</time>
      </trkpt>
      <trkpt lat="31.9424795" lon="34.9493038">
        <ele>106.3</ele>
        <time>2012-04-27T04:50:06Z</time>
      </trkpt>
      <trkpt lat="31.9427615" lon="34.9494604">
        <ele>108.4</ele>
        <time>2012-04-27T04:50:14Z</time>
      </trkpt>
      <trkpt lat="31.9428779" lon="34.9495447">
        <ele>109.4</ele>
        <time>2012-04-27T04:50:20Z</time>
      </trkpt>
      <trkpt lat="31.9430198" lon="34.9496026">
        <ele>111.3</ele>
        <time>2012-04-27T04:50:28Z</time>
      </trkpt>
      <trkpt lat="31.9430951" lon="34.9497393">
        <ele>108.3</ele>
        <time>2012-04-27T04:50:35Z</time>
      </trkpt>
      <trkpt lat="31.9431322" lon="34.9499089">
        <ele>111.3</ele>
        <time>2012-04-27T04:50:41Z</time>
      </trkpt>
      <trkpt lat="31.943265" lon="34.9499808">
        <ele>117.7</ele>
        <time>2012-04-27T04:50:51Z</time>
      </trkpt>
      <trkpt lat="31.9433833" lon="34.9500971">
        <ele>114.0</ele>
        <time>2012-04-27T04:51:01Z</time>
      </trkpt>
      <trkpt lat="31.9434785" lon="34.9502527">
        <ele>115.0</ele>
        <time>2012-04-27T04:51:06Z</time>
      </trkpt>
      <trkpt lat="31.9437029" lon="34.9505054">
        <ele>112.5</ele>
        <time>2012-04-27T04:51:14Z</time>
      </trkpt>
      <trkpt lat="31.9439846" lon="34.9504533">
        <ele>114.1</ele>
        <time>2012-04-27T04:51:24Z</time>
      </trkpt>
      <trkpt lat="31.9441265" lon="34.9504724">
        <ele>111.9</ele>
        <time>2012-04-27T04:51:30Z</time>
      </trkpt>
      <trkpt lat="31.9442315" lon="34.9505791">
        <ele>115.8</ele>
        <time>2012-04-27T04:51:36Z</time>
      </trkpt>
      <trkpt lat="31.9443093" lon="34.9507369">
        <ele>112.5</ele>
        <time>2012-04-27T04:51:42Z</time>
      </trkpt>
      <trkpt lat="31.9443093" lon="34.9507369">
        <time>2012-04-27T04:51:57Z</time>
      </trkpt>
    </trkseg>
    <trkseg>
      <trkpt lat="31.9443093" lon="34.9507369">
        <time>2012-04-27T04:55:06Z</time>
      </trkpt>
      <trkpt lat="31.9443528" lon="34.9507851">
        <ele>110.2</ele>
        <time>2012-04-27T04:55:06Z</time>
      </trkpt>
      <trkpt lat="31.9442613" lon="34.9509229">
        <ele>109.1</ele>
        <time>2012-04-27T04:55:14Z</time>
      </trkpt>
      <trkpt lat="31.9441332" lon="34.9509989">
        <ele>107.4</ele>
        <time>2012-04-27T04:55:18Z</time>
      </trkpt>
      <trkpt lat="31.9439902" lon="34.9510593">
        <ele>109.8</ele>
        <time>2012-04-27T04:55:24Z</time>
      </trkpt>
      <trkpt lat="31.9438275" lon="34.9511395">
        <ele>110.1</ele>
        <time>2012-04-27T04:55:29Z</time>
      </trkpt>
      <trkpt lat="31.9435504" lon="34.951205">
        <ele>110.5</ele>
        <time>2012-04-27T04:55:37Z</time>
      </trkpt>
      <trkpt lat="31.943246" lon="34.9512205">
        <ele>112.0</ele>
        <time>2012-04-27T04:55:43Z</time>
      </trkpt>
      <trkpt lat="31.9429631" lon="34.9511695">
        <ele>109.1</ele>
        <time>2012-04-27T04:55:51Z</time>
      </trkpt>
      <trkpt lat="31.9428083" lon="34.9511891">
        <ele>104.3</ele>
        <time>2012-04-27T04:55:55Z</time>
      </trkpt>
      <trkpt lat="31.9425416" lon="34.9510865">
        <ele>104.3</ele>
        <time>2012-04-27T04:56:03Z</time>
      </trkpt>
      <trkpt lat="31.9424853" lon="34.9509241">
        <ele>104.1</ele>
        <time>2012-04-27T04:56:08Z</time>
      </trkpt>
      <trkpt lat="31.9422634" lon="34.9506414">
        <ele>101.0</ele>
        <time>2012-04-27T04:56:16Z</time>
      </trkpt>
      <trkpt lat="31.9420511" lon="34.9503899">
        <ele>105.8</ele>
        <time>2012-04-27T04:56:27Z</time>
      </trkpt>
      <trkpt lat="31.9419648" lon="34.9502471">
        <ele>107.9</ele>
        <time>2012-04-27T04:56:33Z</time>
      </trkpt>
      <trkpt lat="31.9418438" lon="34.9501311">
        <ele>109.8</ele>
        <time>2012-04-27T04:56:40Z</time>
      </trkpt>
      <trkpt lat="31.9417249" lon="34.9500427">
        <ele>109.7</ele>
        <time>2012-04-27T04:56:45Z</time>
      </trkpt>
      <trkpt lat="31.9415997" lon="34.9499474">
        <ele>106.4</ele>
        <time>2012-04-27T04:56:51Z</time>
      </trkpt>
      <trkpt lat="31.9414942" lon="34.9498377">
        <ele>112.7</ele>
        <time>2012-04-27T04:57:02Z</time>
      </trkpt>
      <trkpt lat="31.9414164" lon="34.9496875">
        <ele>111.1</ele>
        <time>2012-04-27T04:57:10Z</time>
      </trkpt>
      <trkpt lat="31.9412884" lon="34.9496083">
        <ele>110.4</ele>
        <time>2012-04-27T04:57:18Z</time>
      </trkpt>
      <trkpt lat="31.9411559" lon="34.9495419">
        <ele>109.9</ele>
        <time>2012-04-27T04:57:25Z</time>
      </trkpt>
      <trkpt lat="31.94102" lon="34.949477">
        <ele>113.0</ele>
        <time>2012-04-27T04:57:33Z</time>
      </trkpt>
      <trkpt lat="31.9408962" lon="34.9493768">
        <ele>116.3</ele>
        <time>2012-04-27T04:57:40Z</time>
      </trkpt>
      <trkpt lat="31.9407519" lon="34.9493408">
        <ele>113.4</ele>
        <time>2012-04-27T04:57:47Z</time>
      </trkpt>
      <trkpt lat="31.940614" lon="34.9493669">
        <ele>110.0</ele>
        <time>2012-04-27T04:57:54Z</time>
      </trkpt>
      <trkpt lat="31.9406337" lon="34.9495431">
        <ele>106.1</ele>
        <time>2012-04-27T04:58:10Z</time>
      </trkpt>
      <trkpt lat="31.9406616" lon="34.9497012">
        <ele>112.2</ele>
        <time>2012-04-27T04:58:19Z</time>
      </trkpt>
      <trkpt lat="31.9407602" lon="34.9498283">
        <ele>120.5</ele>
        <time>2012-04-27T04:58:27Z</time>
      </trkpt>
      <trkpt lat="31.940885" lon="34.9498985">
        <ele>117.3</ele>
        <time>2012-04-27T04:58:32Z</time>
      </trkpt>
      <trkpt lat="31.9409913" lon="34.9500291">
        <ele>118.7</ele>
        <time>2012-04-27T04:58:38Z</time>
      </trkpt>
      <trkpt lat="31.9410668" lon="34.9501607">
        <ele>120.9</ele>
        <time>2012-04-27T04:58:43Z</time>
      </trkpt>
      <trkpt lat="31.9410812" lon="34.9503372">
        <ele>116.4</ele>
        <time>2012-04-27T04:58:49Z</time>
      </trkpt>
      <trkpt lat="31.941064" lon="34.9505004">
        <ele>113.5</ele>
        <time>2012-04-27T04:59:00Z</time>
      </trkpt>
      <trkpt lat="31.941064" lon="34.9505004">
        <time>2012-04-27T04:59:11Z</time>
      </trkpt>
    </trkseg>
    <trkseg>
      <trkpt lat="31.941064" lon="34.9505004">
        <time>2012-04-27T04:59:14Z</time>
      </trkpt>
      <trkpt lat="31.9410822" lon="34.9505731">
        <ele>122.7</ele>
        <time>2012-04-27T04:59:14Z</time>
      </trkpt>
      <trkpt lat="31.9410469" lon="34.9507881">
        <ele>123.7</ele>
        <time>2012-04-27T04:59:21Z</time>
      </trkpt>
      <trkpt lat="31.9410547" lon="34.9509748">
        <ele>116.0</ele>
        <time>2012-04-27T04:59:26Z</time>
      </trkpt>
      <trkpt lat="31.9410855" lon="34.9511367">
        <ele>113.0</ele>
        <time>2012-04-27T04:59:31Z</time>
      </trkpt>
      <trkpt lat="31.9411958" lon="34.9512678">
        <ele>117.5</ele>
        <time>2012-04-27T04:59:38Z</time>
      </trkpt>
      <trkpt lat="31.9412968" lon="34.9513759">
        <ele>115.9</ele>
        <time>2012-04-27T04:59:43Z</time>
      </trkpt>
      <trkpt lat="31.9413807" lon="34.9515497">
        <ele>124.5</ele>
        <time>2012-04-27T04:59:49Z</time>
      </trkpt>
      <trkpt lat="31.9414411" lon="34.95174">
        <ele>117.9</ele>
        <time>2012-04-27T04:59:54Z</time>
      </trkpt>
      <trkpt lat="31.9415451" lon="34.9520641">
        <ele>121.0</ele>
        <time>2012-04-27T05:00:03Z</time>
      </trkpt>
      <trkpt lat="31.9415971" lon="34.9522329">
        <ele>123.8</ele>
        <time>2012-04-27T05:00:07Z</time>
      </trkpt>
      <trkpt lat="31.9417041" lon="34.9523722">
        <ele>131.0</ele>
        <time>2012-04-27T05:00:15Z</time>
      </trkpt>
      <trkpt lat="31.9417324" lon="34.9525535">
        <ele>123.4</ele>
        <time>2012-04-27T05:00:20Z</time>
      </trkpt>
      <trkpt lat="31.9417586" lon="34.9527141">
        <ele>122.3</ele>
        <time>2012-04-27T05:00:25Z</time>
      </trkpt>
      <trkpt lat="31.9417466" lon="34.9528748">
        <ele>129.3</ele>
        <time>2012-04-27T05:00:31Z</time>
      </trkpt>
      <trkpt lat="31.9416958" lon="34.9530519">
        <ele>135.8</ele>
        <time>2012-04-27T05:00:37Z</time>
      </trkpt>
      <trkpt lat="31.9416318" lon="34.9531975">
        <ele>131.1</ele>
        <time>2012-04-27T05:00:43Z</time>
      </trkpt>
      <trkpt lat="31.9415189" lon="34.953322">
        <ele>131.3</ele>
        <time>2012-04-27T05:00:50Z</time>
      </trkpt>
      <trkpt lat="31.9415189" lon="34.953322">
        <time>2012-04-27T05:01:02Z</time>
      </trkpt>
    </trkseg>
    <trkseg>
      <trkpt lat="31.9415189" lon="34.953322">
        <time>2012-04-27T05:01:40Z</time>
      </trkpt>
      <trkpt lat="31.9414944" lon="34.9534081">
        <ele>134.4</ele>
        <time>2012-04-27T05:01:40Z</time>
      </trkpt>
      <trkpt lat="31.9414944" lon="34.9534081">
        <time>2012-04-27T05:01:51Z</time>
      </trkpt>
    </trkseg>
    <trkseg>
      <trkpt lat="31.9414944" lon="34.9534081">
        <time>2012-04-27T05:06:02Z</time>
      </trkpt>
      <trkpt lat="31.9414919" lon="34.9534725">
        <ele>125.3</ele>
        <time>2012-04-27T05:06:02Z</time>
      </trkpt>
      <trkpt lat="31.9414402" lon="34.9536677">
        <ele>130.8</ele>
        <time>2012-04-27T05:06:11Z</time>
      </trkpt>
      <trkpt lat="31.9413999" lon="34.9538326">
        <ele>132.6</ele>
        <time>2012-04-27T05:06:18Z</time>
      </trkpt>
      <trkpt lat="31.9413885" lon="34.953997">
        <ele>133.4</ele>
        <time>2012-04-27T05:06:25Z</time>
      </trkpt>
      <trkpt lat="31.941378" lon="34.9541619">
        <ele>138.4</ele>
        <time>2012-04-27T05:06:31Z</time>
      </trkpt>
      <trkpt lat="31.9413667" lon="34.9543309">
        <ele>133.8</ele>
        <time>2012-04-27T05:06:39Z</time>
      </trkpt>
      <trkpt lat="31.9413498" lon="34.9544931">
        <ele>133.5</ele>
        <time>2012-04-27T05:06:45Z</time>
      </trkpt>
      <trkpt lat="31.9413472" lon="34.9546576">
        <ele>125.8</ele>
        <time>2012-04-27T05:06:51Z</time>
      </trkpt>
      <trkpt lat="31.9413206" lon="34.9548137">
        <ele>131.3</ele>
        <time>2012-04-27T05:06:56Z</time>
      </trkpt>
      <trkpt lat="31.9413183" lon="34.9549869">
        <ele>130.7</ele>
        <time>2012-04-27T05:07:06Z</time>
      </trkpt>
      <trkpt lat="31.941319" lon="34.9551514">
        <ele>130.6</ele>
        <time>2012-04-27T05:07:16Z</time>
      </trkpt>
      <trkpt lat="31.9413321" lon="34.9553166">
        <ele>137.1</ele>
        <time>2012-04-27T05:07:28Z</time>
      </trkpt>
      <trkpt lat="31.9413144" lon="34.9554846">
        <ele>135.2</ele>
        <time>2012-04-27T05:07:36Z</time>
      </trkpt>
      <trkpt lat="31.9413144" lon="34.9554846">
        <time>2012-04-27T05:07:51Z</time>
      </trkpt>
    </trkseg>
    <trkseg>
      <trkpt lat="31.9413144" lon="34.9554846">
        <time>2012-04-27T05:08:03Z</time>
      </trkpt>
      <trkpt lat="31.9413287" lon="34.9555941">
        <ele>141.9</ele>
        <time>2012-04-27T05:08:03Z</time>
      </trkpt>
      <trkpt lat="31.9414724" lon="34.9556798">
        <ele>139.5</ele>
        <time>2012-04-27T05:08:12Z</time>
      </trkpt>
      <trkpt lat="31.9415092" lon="34.9558376">
        <ele>142.0</ele>
        <time>2012-04-27T05:08:17Z</time>
      </trkpt>
      <trkpt lat="31.9415783" lon="34.9560022">
        <ele>144.5</ele>
        <time>2012-04-27T05:08:23Z</time>
      </trkpt>
      <trkpt lat="31.9415651" lon="34.9561636">
        <ele>145.3</ele>
        <time>2012-04-27T05:08:29Z</time>
      </trkpt>
      <trkpt lat="31.941564" lon="34.9563328">
        <ele>136.2</ele>
        <time>2012-04-27T05:08:37Z</time>
      </trkpt>
      <trkpt lat="31.9416658" lon="34.9565979">
        <ele>143.8</ele>
        <time>2012-04-27T05:08:48Z</time>
      </trkpt>
      <trkpt lat="31.9418041" lon="34.9565775">
        <ele>147.5</ele>
        <time>2012-04-27T05:08:55Z</time>
      </trkpt>
      <trkpt lat="31.9418041" lon="34.9565775">
        <time>2012-04-27T05:09:09Z</time>
      </trkpt>
    </trkseg>
    <trkseg>
      <trkpt lat="31.9418041" lon="34.9565775">
        <time>2012-04-27T05:09:12Z</time>
      </trkpt>
      <trkpt lat="31.9418381" lon="34.9566435">
        <ele>143.7</ele>
        <time>2012-04-27T05:09:12Z</time>
      </trkpt>
      <trkpt lat="31.9418622" lon="34.9568274">
        <ele>137.6</ele>
        <time>2012-04-27T05:09:17Z</time>
      </trkpt>
      <trkpt lat="31.9419465" lon="34.9569773">
        <ele>135.9</ele>
        <time>2012-04-27T05:09:23Z</time>
      </trkpt>
      <trkpt lat="31.9420609" lon="34.9571119">
        <ele>144.7</ele>
        <time>2012-04-27T05:09:28Z</time>
      </trkpt>
      <trkpt lat="31.9421413" lon="34.9572524">
        <ele>141.9</ele>
        <time>2012-04-27T05:09:33Z</time>
      </trkpt>
      <trkpt lat="31.9421661" lon="34.9574382">
        <ele>142.2</ele>
        <time>2012-04-27T05:09:39Z</time>
      </trkpt>
      <trkpt lat="31.9421531" lon="34.9576207">
        <ele>142.1</ele>
        <time>2012-04-27T05:09:45Z</time>
      </trkpt>
      <trkpt lat="31.9421224" lon="34.9577814">
        <ele>143.6</ele>
        <time>2012-04-27T05:09:50Z</time>
      </trkpt>
      <trkpt lat="31.9421012" lon="34.9579464">
        <ele>142.5</ele>
        <time>2012-04-27T05:09:55Z</time>
      </trkpt>
      <trkpt lat="31.9420849" lon="34.9581235">
        <ele>144.6</ele>
        <time>2012-04-27T05:10:00Z</time>
      </trkpt>
      <trkpt lat="31.9420848" lon="34.9583033">
        <ele>144.2</ele>
        <time>2012-04-27T05:10:06Z</time>
      </trkpt>
      <trkpt lat="31.9420813" lon="34.9584722">
        <ele>146.4</ele>
        <time>2012-04-27T05:10:11Z</time>
      </trkpt>
      <trkpt lat="31.9420813" lon="34.9584722">
        <time>2012-04-27T05:10:27Z</time>
      </trkpt>
    </trkseg>
    <trkseg>
      <trkpt lat="31.9420813" lon="34.9584722">
        <time>2012-04-27T05:10:44Z</time>
      </trkpt>
      <trkpt lat="31.9421084" lon="34.9586762">
        <ele>149.8</ele>
        <time>2012-04-27T05:10:44Z</time>
      </trkpt>
      <trkpt lat="31.9422658" lon="34.9588189">
        <ele>143.0</ele>
        <time>2012-04-27T05:10:49Z</time>
      </trkpt>
      <trkpt lat="31.9423729" lon="34.9589749">
        <ele>139.6</ele>
        <time>2012-04-27T05:10:53Z</time>
      </trkpt>
      <trkpt lat="31.9425157" lon="34.9592941">
        <ele>138.3</ele>
        <time>2012-04-27T05:11:00Z</time>
      </trkpt>
      <trkpt lat="31.9427142" lon="34.9596019">
        <ele>142.1</ele>
        <time>2012-04-27T05:11:08Z</time>
      </trkpt>
      <trkpt lat="31.9428208" lon="34.9597202">
        <ele>140.7</ele>
        <time>2012-04-27T05:11:12Z</time>
      </trkpt>
      <trkpt lat="31.942954" lon="34.9598107">
        <ele>137.9</ele>
        <time>2012-04-27T05:11:17Z</time>
      </trkpt>
      <trkpt lat="31.942954" lon="34.9598107">
        <time>2012-04-27T05:11:30Z</time>
      </trkpt>
    </trkseg>
    <trkseg>
      <trkpt lat="31.942954" lon="34.9598107">
        <time>2012-04-27T05:11:37Z</time>
      </trkpt>
      <trkpt lat="31.9430821" lon="34.959817">
        <ele>131.9</ele>
        <time>2012-04-27T05:11:37Z</time>
      </trkpt>
      <trkpt lat="31.9432655" lon="34.9597653">
        <ele>133.1</ele>
        <time>2012-04-27T05:11:42Z</time>
      </trkpt>
      <trkpt lat="31.9434215" lon="34.9597466">
        <ele>136.6</ele>
        <time>2012-04-27T05:11:50Z</time>
      </trkpt>
      <trkpt lat="31.9435496" lon="34.9596754">
        <ele>136.0</ele>
        <time>2012-04-27T05:11:55Z</time>
      </trkpt>
      <trkpt lat="31.9436653" lon="34.9595708">
        <ele>134.8</ele>
        <time>2012-04-27T05:12:02Z</time>
      </trkpt>
      <trkpt lat="31.9437206" lon="34.9594187">
        <ele>134.7</ele>
        <time>2012-04-27T05:12:07Z</time>
      </trkpt>
      <trkpt lat="31.9437206" lon="34.9594187">
        <time>2012-04-27T05:12:20Z</time>
      </trkpt>
    </trkseg>
    <trkseg>
      <trkpt lat="31.9437206" lon="34.9594187">
        <time>2012-04-27T05:12:29Z</time>
      </trkpt>
      <trkpt lat="31.9437643" lon="34.9593259">
        <ele>134.4</ele>
        <time>2012-04-27T05:12:29Z</time>
      </trkpt>
      <trkpt lat="31.9438713" lon="34.9591713">
        <ele>131.5</ele>
        <time>2012-04-27T05:12:38Z</time>
      </trkpt>
      <trkpt lat="31.9438998" lon="34.9589999">
        <ele>136.2</ele>
        <time>2012-04-27T05:12:56Z</time>
      </trkpt>
      <trkpt lat="31.9438824" lon="34.9588385">
        <ele>134.8</ele>
        <time>2012-04-27T05:13:03Z</time>
      </trkpt>
      <trkpt lat="31.9438902" lon="34.9586669">
        <ele>136.1</ele>
        <time>2012-04-27T05:13:11Z</time>
      </trkpt>
      <trkpt lat="31.9438992" lon="34.9584904">
        <ele>135.4</ele>
        <time>2012-04-27T05:13:17Z</time>
      </trkpt>
      <trkpt lat="31.9438949" lon="34.9583225">
        <ele>136.3</ele>
        <time>2012-04-27T05:13:22Z</time>
      </trkpt>
      <trkpt lat="31.943853" lon="34.9581523">
        <ele>135.2</ele>
        <time>2012-04-27T05:13:27Z</time>
      </trkpt>
      <trkpt lat="31.9438549" lon="34.9579817">
        <ele>134.2</ele>
        <time>2012-04-27T05:13:32Z</time>
      </trkpt>
      <trkpt lat="31.9438097" lon="34.9578261">
        <ele>134.2</ele>
        <time>2012-04-27T05:13:36Z</time>
      </trkpt>
      <trkpt lat="31.9437613" lon="34.9576305">
        <ele>132.6</ele>
        <time>2012-04-27T05:13:40Z</time>
      </trkpt>
      <trkpt lat="31.9439096" lon="34.9572985">
        <ele>130.9</ele>
        <time>2012-04-27T05:13:49Z</time>
      </trkpt>
      <trkpt lat="31.9440054" lon="34.9571578">
        <ele>131.7</ele>
        <time>2012-04-27T05:13:54Z</time>
      </trkpt>
      <trkpt lat="31.9440054" lon="34.9571578">
        <time>2012-04-27T05:14:06Z</time>
      </trkpt>
    </trkseg>
    <trkseg>
      <trkpt lat="31.9440054" lon="34.9571578">
        <time>2012-04-27T05:14:14Z</time>
      </trkpt>
      <trkpt lat="31.9440523" lon="34.9570893">
        <ele>128.9</ele>
        <time>2012-04-27T05:14:14Z</time>
      </trkpt>
      <trkpt lat="31.9441754" lon="34.9569133">
        <ele>128.2</ele>
        <time>2012-04-27T05:14:20Z</time>
      </trkpt>
      <trkpt lat="31.9443325" lon="34.9566325">
        <ele>127.4</ele>
        <time>2012-04-27T05:14:26Z</time>
      </trkpt>
      <trkpt lat="31.944388" lon="34.9564877">
        <ele>127.0</ele>
        <time>2012-04-27T05:14:30Z</time>
      </trkpt>
      <trkpt lat="31.944388" lon="34.9561165">
        <ele>121.7</ele>
        <time>2012-04-27T05:14:38Z</time>
      </trkpt>
      <trkpt lat="31.9442816" lon="34.9559541">
        <ele>124.3</ele>
        <time>2012-04-27T05:14:42Z</time>
      </trkpt>
      <trkpt lat="31.9442771" lon="34.9557758">
        <ele>126.5</ele>
        <time>2012-04-27T05:14:48Z</time>
      </trkpt>
      <trkpt lat="31.9442679" lon="34.9556071">
        <ele>126.7</ele>
        <time>2012-04-27T05:14:54Z</time>
      </trkpt>
      <trkpt lat="31.9442342" lon="34.95545">
        <ele>126.8</ele>
        <time>2012-04-27T05:14:59Z</time>
      </trkpt>
      <trkpt lat="31.9442068" lon="34.9552923">
        <ele>126.5</ele>
        <time>2012-04-27T05:15:03Z</time>
      </trkpt>
      <trkpt lat="31.9442068" lon="34.9552923">
        <time>2012-04-27T05:15:15Z</time>
      </trkpt>
    </trkseg>
    <trkseg>
      <trkpt lat="31.9442068" lon="34.9552923">
        <time>2012-04-27T05:15:34Z</time>
      </trkpt>
      <trkpt lat="31.9442018" lon="34.9551949">
        <ele>127.1</ele>
        <time>2012-04-27T05:15:34Z</time>
      </trkpt>
      <trkpt lat="31.9443389" lon="34.9550769">
        <ele>126.8</ele>
        <time>2012-04-27T05:15:44Z</time>
      </trkpt>
      <trkpt lat="31.9443694" lon="34.9552612">
        <ele>129.4</ele>
        <time>2012-04-27T05:15:53Z</time>
      </trkpt>
      <trkpt lat="31.9443824" lon="34.9554446">
        <ele>127.7</ele>
        <time>2012-04-27T05:16:01Z</time>
      </trkpt>
      <trkpt lat="31.9444316" lon="34.9556077">
        <ele>128.9</ele>
        <time>2012-04-27T05:16:08Z</time>
      </trkpt>
      <trkpt lat="31.9444845" lon="34.955755">
        <ele>131.7</ele>
        <time>2012-04-27T05:16:15Z</time>
      </trkpt>
      <trkpt lat="31.9445773" lon="34.955883">
        <ele>132.5</ele>
        <time>2012-04-27T05:16:24Z</time>
      </trkpt>
      <trkpt lat="31.9446029" lon="34.9560628">
        <ele>127.3</ele>
        <time>2012-04-27T05:16:29Z</time>
      </trkpt>
      <trkpt lat="31.9447085" lon="34.9562116">
        <ele>132.9</ele>
        <time>2012-04-27T05:16:34Z</time>
      </trkpt>
      <trkpt lat="31.9447562" lon="34.956385">
        <ele>134.6</ele>
        <time>2012-04-27T05:16:44Z</time>
      </trkpt>
      <trkpt lat="31.9446518" lon="34.9564912">
        <ele>134.8</ele>
        <time>2012-04-27T05:16:48Z</time>
      </trkpt>
      <trkpt lat="31.944601" lon="34.9566418">
        <ele>128.8</ele>
        <time>2012-04-27T05:16:54Z</time>
      </trkpt>
      <trkpt lat="31.944601" lon="34.9566418">
        <time>2012-04-27T05:17:07Z</time>
      </trkpt>
    </trkseg>
    <trkseg>
      <trkpt lat="31.944601" lon="34.9566418">
        <time>2012-04-27T05:17:19Z</time>
      </trkpt>
      <trkpt lat="31.9445912" lon="34.9567437">
        <ele>133.3</ele>
        <time>2012-04-27T05:17:19Z</time>
      </trkpt>
      <trkpt lat="31.9445876" lon="34.9569477">
        <ele>135.7</ele>
        <time>2012-04-27T05:17:27Z</time>
      </trkpt>
      <trkpt lat="31.9445671" lon="34.9571076">
        <ele>139.2</ele>
        <time>2012-04-27T05:17:32Z</time>
      </trkpt>
      <trkpt lat="31.9445021" lon="34.9572575">
        <ele>142.5</ele>
        <time>2012-04-27T05:17:38Z</time>
      </trkpt>
      <trkpt lat="31.9444031" lon="34.9574147">
        <ele>141.8</ele>
        <time>2012-04-27T05:17:45Z</time>
      </trkpt>
      <trkpt lat="31.9442909" lon="34.9577318">
        <ele>137.0</ele>
        <time>2012-04-27T05:17:55Z</time>
      </trkpt>
      <trkpt lat="31.9442445" lon="34.9579061">
        <ele>140.7</ele>
        <time>2012-04-27T05:18:00Z</time>
      </trkpt>
      <trkpt lat="31.9442445" lon="34.9579061">
        <time>2012-04-27T05:18:17Z</time>
      </trkpt>
    </trkseg>
    <trkseg>
      <trkpt lat="31.9442445" lon="34.9579061">
        <time>2012-04-27T05:18:45Z</time>
      </trkpt>
      <trkpt lat="31.9442749" lon="34.9581634">
        <ele>142.0</ele>
        <time>2012-04-27T05:18:45Z</time>
      </trkpt>
      <trkpt lat="31.9444296" lon="34.9582409">
        <ele>146.8</ele>
        <time>2012-04-27T05:18:54Z</time>
      </trkpt>
      <trkpt lat="31.9445624" lon="34.9583057">
        <ele>146.6</ele>
        <time>2012-04-27T05:19:00Z</time>
      </trkpt>
      <trkpt lat="31.9445624" lon="34.9583057">
        <time>2012-04-27T05:19:09Z</time>
      </trkpt>
    </trkseg>
    <trkseg>
      <trkpt lat="31.9445624" lon="34.9583057">
        <time>2012-04-27T05:19:19Z</time>
      </trkpt>
      <trkpt lat="31.9446087" lon="34.9583256">
        <ele>150.3</ele>
        <time>2012-04-27T05:19:19Z</time>
      </trkpt>
      <trkpt lat="31.9447674" lon="34.9582687">
        <ele>150.5</ele>
        <time>2012-04-27T05:19:25Z</time>
      </trkpt>
      <trkpt lat="31.944873" lon="34.9581397">
        <ele>150.1</ele>
        <time>2012-04-27T05:19:37Z</time>
      </trkpt>
      <trkpt lat="31.9449999" lon="34.9580228">
        <ele>146.9</ele>
        <time>2012-04-27T05:19:45Z</time>
      </trkpt>
      <trkpt lat="31.9451316" lon="34.9579361">
        <ele>148.8</ele>
        <time>2012-04-27T05:19:51Z</time>
      </trkpt>
      <trkpt lat="31.9451316" lon="34.9579361">
        <time>2012-04-27T05:20:09Z</time>
      </trkpt>
    </trkseg>
    <trkseg>
      <trkpt lat="31.9451316" lon="34.9579361">
        <time>2012-04-27T05:20:25Z</time>
      </trkpt>
      <trkpt lat="31.9453009" lon="34.9578667">
        <ele>150.0</ele>
        <time>2012-04-27T05:20:25Z</time>
      </trkpt>
      <trkpt lat="31.9454273" lon="34.9577186">
        <ele>151.6</ele>
        <time>2012-04-27T05:20:32Z</time>
      </trkpt>
      <trkpt lat="31.9455439" lon="34.9576187">
        <ele>149.6</ele>
        <time>2012-04-27T05:20:36Z</time>
      </trkpt>
      <trkpt lat="31.9456695" lon="34.9575393">
        <ele>149.0</ele>
        <time>2012-04-27T05:20:40Z</time>
      </trkpt>
      <trkpt lat="31.9458185" lon="34.9574713">
        <ele>150.9</ele>
        <time>2012-04-27T05:20:45Z</time>
      </trkpt>
      <trkpt lat="31.9459569" lon="34.9573879">
        <ele>151.5</ele>
        <time>2012-04-27T05:20:50Z</time>
      </trkpt>
      <trkpt lat="31.9460956" lon="34.9573209">
        <ele>153.5</ele>
        <time>2012-04-27T05:20:55Z</time>
      </trkpt>
      <trkpt lat="31.9462281" lon="34.9572442">
        <ele>152.3</ele>
        <time>2012-04-27T05:21:01Z</time>
      </trkpt>
      <trkpt lat="31.9463607" lon="34.9573021">
        <ele>153.6</ele>
        <time>2012-04-27T05:21:12Z</time>
      </trkpt>
      <trkpt lat="31.9463851" lon="34.9574631">
        <ele>152.3</ele>
        <time>2012-04-27T05:21:18Z</time>
      </trkpt>
      <trkpt lat="31.9463831" lon="34.9576261">
        <ele>153.7</ele>
        <time>2012-04-27T05:21:23Z</time>
      </trkpt>
      <trkpt lat="31.9463913" lon="34.9577972">
        <ele>155.3</ele>
        <time>2012-04-27T05:21:30Z</time>
      </trkpt>
      <trkpt lat="31.9464267" lon="34.9579675">
        <ele>153.2</ele>
        <time>2012-04-27T05:21:36Z</time>
      </trkpt>
      <trkpt lat="31.9464463" lon="34.9581443">
        <ele>152.7</ele>
        <time>2012-04-27T05:21:41Z</time>
      </trkpt>
      <trkpt lat="31.94653" lon="34.9582977">
        <ele>155.9</ele>
        <time>2012-04-27T05:21:47Z</time>
      </trkpt>
      <trkpt lat="31.94653" lon="34.9582977">
        <time>2012-04-27T05:22:00Z</time>
      </trkpt>
    </trkseg>
    <trkseg>
      <trkpt lat="31.94653" lon="34.9582977">
        <time>2012-04-27T05:22:36Z</time>
      </trkpt>
      <trkpt lat="31.9465929" lon="34.9583431">
        <ele>153.8</ele>
        <time>2012-04-27T05:22:36Z</time>
      </trkpt>
      <trkpt lat="31.9467642" lon="34.9583859">
        <ele>158.5</ele>
        <time>2012-04-27T05:22:42Z</time>
      </trkpt>
      <trkpt lat="31.9469167" lon="34.9584693">
        <ele>153.8</ele>
        <time>2012-04-27T05:22:47Z</time>
      </trkpt>
      <trkpt lat="31.9470611" lon="34.9584978">
        <ele>153.4</ele>
        <time>2012-04-27T05:22:52Z</time>
      </trkpt>
      <trkpt lat="31.9472018" lon="34.9584979">
        <ele>153.3</ele>
        <time>2012-04-27T05:22:57Z</time>
      </trkpt>
      <trkpt lat="31.9472018" lon="34.9584979">
        <time>2012-04-27T05:23:16Z</time>
      </trkpt>
    </trkseg>
    <trkseg>
      <trkpt lat="31.9472018" lon="34.9584979">
        <time>2012-04-27T05:26:55Z</time>
      </trkpt>
      <trkpt lat="31.9472566" lon="34.9583572">
        <ele>159.1</ele>
        <time>2012-04-27T05:26:55Z</time>
      </trkpt>
      <trkpt lat="31.9472277" lon="34.9581587">
        <ele>160.1</ele>
        <time>2012-04-27T05:27:02Z</time>
      </trkpt>
      <trkpt lat="31.947181" lon="34.957998">
        <ele>160.9</ele>
        <time>2012-04-27T05:27:07Z</time>
      </trkpt>
      <trkpt lat="31.9471473" lon="34.9578258">
        <ele>161.2</ele>
        <time>2012-04-27T05:27:12Z</time>
      </trkpt>
      <trkpt lat="31.947284" lon="34.9578467">
        <ele>160.3</ele>
        <time>2012-04-27T05:27:24Z</time>
      </trkpt>
      <trkpt lat="31.9473909" lon="34.957981">
        <ele>160.6</ele>
        <time>2012-04-27T05:27:33Z</time>
      </trkpt>
      <trkpt lat="31.947505" lon="34.9581303">
        <ele>162.0</ele>
        <time>2012-04-27T05:27:39Z</time>
      </trkpt>
      <trkpt lat="31.9476166" lon="34.9582452">
        <ele>164.5</ele>
        <time>2012-04-27T05:27:44Z</time>
      </trkpt>
      <trkpt lat="31.9476538" lon="34.9580834">
        <ele>162.4</ele>
        <time>2012-04-27T05:27:52Z</time>
      </trkpt>
      <trkpt lat="31.9476456" lon="34.9578984">
        <ele>162.4</ele>
        <time>2012-04-27T05:27:58Z</time>
      </trkpt>
      <trkpt lat="31.9476799" lon="34.9577305">
        <ele>161.5</ele>
        <time>2012-04-27T05:28:04Z</time>
      </trkpt>
      <trkpt lat="31.9476872" lon="34.9575426">
        <ele>163.4</ele>
        <time>2012-04-27T05:28:10Z</time>
      </trkpt>
      <trkpt lat="31.9477444" lon="34.9573863">
        <ele>161.2</ele>
        <time>2012-04-27T05:28:16Z</time>
      </trkpt>
      <trkpt lat="31.9478128" lon="34.9572285">
        <ele>163.4</ele>
        <time>2012-04-27T05:28:23Z</time>
      </trkpt>
      <trkpt lat="31.9479041" lon="34.9571045">
        <ele>167.0</ele>
        <time>2012-04-27T05:28:30Z</time>
      </trkpt>
      <trkpt lat="31.9478681" lon="34.9569384">
        <ele>164.0</ele>
        <time>2012-04-27T05:28:37Z</time>
      </trkpt>
      <trkpt lat="31.9478681" lon="34.9569384">
        <time>2012-04-27T05:28:49Z</time>
      </trkpt>
    </trkseg>
    <trkseg>
      <trkpt lat="31.9478681" lon="34.9569384">
        <time>2012-04-27T05:29:08Z</time>
      </trkpt>
      <trkpt lat="31.9478419" lon="34.9568203">
        <ele>170.2</ele>
        <time>2012-04-27T05:29:08Z</time>
      </trkpt>
      <trkpt lat="31.9478419" lon="34.9568203">
        <time>2012-04-27T05:29:22Z</time>
      </trkpt>
    </trkseg>
    <trkseg>
      <trkpt lat="31.9478419" lon="34.9568203">
        <time>2012-04-27T05:29:23Z</time>
      </trkpt>
      <trkpt lat="31.9478255" lon="34.9566604">
        <ele>171.3</ele>
        <time>2012-04-27T05:29:23Z</time>
      </trkpt>
      <trkpt lat="31.9479238" lon="34.9564621">
        <ele>165.4</ele>
        <time>2012-04-27T05:29:28Z</time>
      </trkpt>
      <trkpt lat="31.9481043" lon="34.9561858">
        <ele>168.4</ele>
        <time>2012-04-27T05:29:37Z</time>
      </trkpt>
      <trkpt lat="31.9481554" lon="34.9560287">
        <ele>166.1</ele>
        <time>2012-04-27T05:29:42Z</time>
      </trkpt>
      <trkpt lat="31.9482353" lon="34.9558961">
        <ele>164.9</ele>
        <time>2012-04-27T05:29:46Z</time>
      </trkpt>
      <trkpt lat="31.9483682" lon="34.9558164">
        <ele>164.5</ele>
        <time>2012-04-27T05:29:51Z</time>
      </trkpt>
      <trkpt lat="31.9485151" lon="34.955808">
        <ele>165.4</ele>
        <time>2012-04-27T05:29:56Z</time>
      </trkpt>
      <trkpt lat="31.9486537" lon="34.9558118">
        <ele>167.3</ele>
        <time>2012-04-27T05:30:02Z</time>
      </trkpt>
      <trkpt lat="31.9488064" lon="34.9557605">
        <ele>167.8</ele>
        <time>2012-04-27T05:30:09Z</time>
      </trkpt>
      <trkpt lat="31.9489469" lon="34.955705">
        <ele>168.4</ele>
        <time>2012-04-27T05:30:16Z</time>
      </trkpt>
      <trkpt lat="31.9490953" lon="34.9556547">
        <ele>171.0</ele>
        <time>2012-04-27T05:30:22Z</time>
      </trkpt>
      <trkpt lat="31.9492517" lon="34.9556251">
        <ele>171.7</ele>
        <time>2012-04-27T05:30:28Z</time>
      </trkpt>
      <trkpt lat="31.9493954" lon="34.955612">
        <ele>167.9</ele>
        <time>2012-04-27T05:30:34Z</time>
      </trkpt>
      <trkpt lat="31.9495398" lon="34.9555722">
        <ele>169.3</ele>
        <time>2012-04-27T05:30:42Z</time>
      </trkpt>
      <trkpt lat="31.9495398" lon="34.9555722">
        <time>2012-04-27T05:31:02Z</time>
      </trkpt>
    </trkseg>
    <trkseg>
      <trkpt lat="31.9495398" lon="34.9555722">
        <time>2012-04-27T05:31:22Z</time>
      </trkpt>
      <trkpt lat="31.9496871" lon="34.955499">
        <ele>171.7</ele>
        <time>2012-04-27T05:31:22Z</time>
      </trkpt>
      <trkpt lat="31.9498565" lon="34.9554721">
        <ele>170.8</ele>
        <time>2012-04-27T05:31:30Z</time>
      </trkpt>
      <trkpt lat="31.9499954" lon="34.9554499">
        <ele>170.0</ele>
        <time>2012-04-27T05:31:37Z</time>
      </trkpt>
      <trkpt lat="31.9501376" lon="34.9554364">
        <ele>173.3</ele>
        <time>2012-04-27T05:31:44Z</time>
      </trkpt>
      <trkpt lat="31.9502857" lon="34.955438">
        <ele>171.0</ele>
        <time>2012-04-27T05:31:51Z</time>
      </trkpt>
      <trkpt lat="31.9504288" lon="34.955418">
        <ele>171.1</ele>
        <time>2012-04-27T05:31:58Z</time>
      </trkpt>
      <trkpt lat="31.9505651" lon="34.9553861">
        <ele>173.4</ele>
        <time>2012-04-27T05:32:06Z</time>
      </trkpt>
      <trkpt lat="31.9507003" lon="34.955342">
        <ele>168.1</ele>
        <time>2012-04-27T05:32:17Z</time>
      </trkpt>
      <trkpt lat="31.9507003" lon="34.955342">
        <time>2012-04-27T05:32:32Z</time>
      </trkpt>
    </trkseg>
    <trkseg>
      <trkpt lat="31.9507003" lon="34.955342">
        <time>2012-04-27T05:33:00Z</time>
      </trkpt>
    </trkseg>
  </trk>
</gpx>